Karnet, Western Australia

12:36 PM AWST on July 26, 2016 (GMT +0800)
Wellard | | Change Station

Elev 85 ft 32.27 °S, 115.87 °E | Updated 7 seconds ago

Partly Cloudy
Partly Cloudy
62.2 °F
Feels Like 62.2 °F
N
1.8
Wind Variable Wind from SSE
Gusts 2.5 mph

Today
High -- | Low -- °F
--% Chance of Precip.
Yesterday
High -- | Low -- °F
Precip. -- in
Pressure 30.36 in
Visibility 6.2 miles
Clouds Few 2400 ft
Dew Point 49 °F
Humidity 62%
Rainfall 0.00 in
Snow Depth Not available.
7:09 AM 5:35 PM
Waning Gibbous, 59% visible
METAR YPPH 260400Z 16007KT 9999 FEW024 17/09 Q1028 NOSIG
Pressure 30.36 in
Visibility 6.2 miles
Clouds Few 2400 ft
Dew Point 49 °F
Humidity 62%
Rainfall 0.00 in
Snow Depth Not available.
7:09 AM 5:35 PM
Waning Gibbous, 59% visible
METAR YPPH 260400Z 16007KT 9999 FEW024 17/09 Q1028 NOSIG

10-Day Weather Forecast

Almanac

Astronomy

Jul. 26, 2016 Rise Set
Actual Time
Civil Twilight
Nautical Twilight
Astronomical Twilight
Moon
Length of Visible Light
Length of Day
Tomorrow will be .
, % of the Moon is Illuminated

Today's Extremes

Country Highs Country Lows

Community

WunderPhotos

Upload Photos

1,927,534 photos uploaded!

WunderBlog® & News

Nearby

Air Quality

  Air Quality AQ Index Pollutant
Not available.

Snow Depth

Station Depth Elevation

Earthquake Activity

City Distance Mag. Time & Date
Minimum magnitude displayed is 2.5.

Coastal Water Temperatures

Place Temperature

Stations

Nearby Weather Stations

Station Location Temp. Windchill Dew Point Humidity Wind Precip. Elev Updated Type